Girouxville, Canada
Current Conditions -  °F | °C
As of 12:00 AM on Saturday 20 Dec 2014 (Local Time) from CYPE Reporting Station
Clear Clear  
Wind Chill:   Ceiling: Unl
Heat Index:   Visibility: 15mi
Dew Point:   Wind: 3mph
Humidity: 92%   Direction: 240°WSW
Pressure: 29.6"   Gusts: NA
Location:  55.75°N, 117.33°W
Report Text: CYPE 200700Z 24003KT 15SM SKC M13/M14 A2960 RMK FROIN SLP066
Loading
Personal Weather Stations






























Interactive Weather Map New forecast layout! Learn more

10-Day Weather Forecast

Advertisements
Track Severe Weather on mobile